Cliffwood, New Jersey
Current Conditions -  °F | °C
As of 5:55 PM on Friday 19 Dec 2014 (Local Time) from KLDJ Reporting Station
Overcast Overcast  
Wind Chill: 32°   Ceiling: 3100
Heat Index: 38°   Visibility: 10mi
Dew Point: 26°   Wind: 8mph
Humidity: 62%   Direction: 360°N
Pressure: 30.15"   Gusts: NA
Location:  40.44°N, 74.24°W
Report Text: KLDJ 192255Z AUTO 36007KT 10SM OVC031 03/M04 A3015 RMK AO2 T00311036
Loading
Personal Weather Stations






























Interactive Weather Map New forecast layout! Learn more

10-Day Weather Forecast

Advertisements
Track Severe Weather on mobile